sensor_id;sensor_type;location;lat;lon;timestamp;P1;durP1;ratioP1;P2;durP2;ratioP2
69401;SDS011;56589;51.992;5.924;2023-10-13T00:00:30;28.60;;;13.43;;
69401;SDS011;56589;51.992;5.924;2023-10-13T00:02:56;28.70;;;13.70;;
69401;SDS011;56589;51.992;5.924;2023-10-13T00:05:22;24.45;;;13.38;;
69401;SDS011;56589;51.992;5.924;2023-10-13T00:07:48;24.77;;;14.57;;
69401;SDS011;56589;51.992;5.924;2023-10-13T00:10:17;27.15;;;13.02;;
69401;SDS011;56589;51.992;5.924;2023-10-13T00:12:42;30.02;;;12.88;;
69401;SDS011;56589;51.992;5.924;2023-10-13T00:15:08;20.23;;;11.63;;
69401;SDS011;56589;51.992;5.924;2023-10-13T00:17:34;18.77;;;11.93;;
69401;SDS011;56589;51.992;5.924;2023-10-13T00:20:00;16.33;;;10.98;;
69401;SDS011;56589;51.992;5.924;2023-10-13T00:22:26;19.98;;;11.20;;
69401;SDS011;56589;51.992;5.924;2023-10-13T00:24:52;25.05;;;11.50;;
69401;SDS011;56589;51.992;5.924;2023-10-13T00:27:20;24.10;;;11.35;;
69401;SDS011;56589;51.992;5.924;2023-10-13T00:29:46;20.35;;;11.18;;
69401;SDS011;56589;51.992;5.924;2023-10-13T00:32:12;19.73;;;11.10;;
69401;SDS011;56589;51.992;5.924;2023-10-13T00:34:38;21.17;;;11.32;;
69401;SDS011;56589;51.992;5.924;2023-10-13T00:37:03;18.10;;;10.65;;
69401;SDS011;56589;51.992;5.924;2023-10-13T00:39:29;22.92;;;11.32;;
69401;SDS011;56589;51.992;5.924;2023-10-13T00:41:55;21.63;;;10.73;;
69401;SDS011;56589;51.992;5.924;2023-10-13T00:44:24;19.30;;;10.77;;
69401;SDS011;56589;51.992;5.924;2023-10-13T00:46:49;20.15;;;10.90;;
69401;SDS011;56589;51.992;5.924;2023-10-13T00:49:15;17.23;;;10.80;;
69401;SDS011;56589;51.992;5.924;2023-10-13T00:51:41;16.20;;;9.88;;
69401;SDS011;56589;51.992;5.924;2023-10-13T00:54:08;16.55;;;10.07;;
69401;SDS011;56589;51.992;5.924;2023-10-13T00:56:34;22.05;;;10.80;;
69401;SDS011;56589;51.992;5.924;2023-10-13T00:59:04;19.25;;;10.02;;
69401;SDS011;56589;51.992;5.924;2023-10-13T01:01:32;18.10;;;10.02;;
69401;SDS011;56589;51.992;5.924;2023-10-13T01:03:58;21.60;;;10.20;;
69401;SDS011;56589;51.992;5.924;2023-10-13T01:06:24;17.58;;;10.02;;
69401;SDS011;56589;51.992;5.924;2023-10-13T01:08:56;23.05;;;10.25;;
69401;SDS011;56589;51.992;5.924;2023-10-13T01:11:24;20.33;;;11.15;;
69401;SDS011;56589;51.992;5.924;2023-10-13T01:13:50;18.65;;;10.43;;
69401;SDS011;56589;51.992;5.924;2023-10-13T01:16:16;17.23;;;10.50;;
69401;SDS011;56589;51.992;5.924;2023-10-13T01:18:44;22.52;;;10.50;;
69401;SDS011;56589;51.992;5.924;2023-10-13T01:21:10;16.48;;;10.10;;
69401;SDS011;56589;51.992;5.924;2023-10-13T01:23:38;20.23;;;10.57;;
69401;SDS011;56589;51.992;5.924;2023-10-13T01:26:04;16.35;;;10.07;;
69401;SDS011;56589;51.992;5.924;2023-10-13T01:28:30;21.00;;;10.10;;
69401;SDS011;56589;51.992;5.924;2023-10-13T01:30:56;21.88;;;9.45;;
69401;SDS011;56589;51.992;5.924;2023-10-13T01:33:22;14.85;;;9.23;;
69401;SDS011;56589;51.992;5.924;2023-10-13T01:35:47;16.92;;;9.10;;
69401;SDS011;56589;51.992;5.924;2023-10-13T01:38:13;19.88;;;8.98;;
69401;SDS011;56589;51.992;5.924;2023-10-13T01:40:42;19.00;;;9.32;;
69401;SDS011;56589;51.992;5.924;2023-10-13T01:43:07;21.70;;;9.57;;
69401;SDS011;56589;51.992;5.924;2023-10-13T01:45:33;20.92;;;8.55;;
69401;SDS011;56589;51.992;5.924;2023-10-13T01:47:59;14.73;;;9.13;;
69401;SDS011;56589;51.992;5.924;2023-10-13T01:50:25;14.75;;;8.88;;
69401;SDS011;56589;51.992;5.924;2023-10-13T01:52:51;12.80;;;8.40;;
69401;SDS011;56589;51.992;5.924;2023-10-13T01:55:17;14.25;;;7.90;;
69401;SDS011;56589;51.992;5.924;2023-10-13T01:57:46;12.85;;;8.73;;
69401;SDS011;56589;51.992;5.924;2023-10-13T02:00:12;13.85;;;8.15;;
69401;SDS011;56589;51.992;5.924;2023-10-13T02:02:39;17.40;;;9.00;;
69401;SDS011;56589;51.992;5.924;2023-10-13T02:05:05;18.00;;;8.52;;
69401;SDS011;56589;51.992;5.924;2023-10-13T02:07:31;17.67;;;7.78;;
69401;SDS011;56589;51.992;5.924;2023-10-13T02:09:57;14.82;;;7.97;;
69401;SDS011;56589;51.992;5.924;2023-10-13T02:12:23;19.20;;;8.80;;
69401;SDS011;56589;51.992;5.924;2023-10-13T02:14:51;15.88;;;7.53;;
69401;SDS011;56589;51.992;5.924;2023-10-13T02:17:17;13.27;;;7.20;;
69401;SDS011;56589;51.992;5.924;2023-10-13T02:19:43;13.20;;;7.40;;
69401;SDS011;56589;51.992;5.924;2023-10-13T02:22:09;16.23;;;7.07;;
69401;SDS011;56589;51.992;5.924;2023-10-13T02:24:35;13.88;;;7.28;;
69401;SDS011;56589;51.992;5.924;2023-10-13T02:27:00;15.90;;;7.60;;
69401;SDS011;56589;51.992;5.924;2023-10-13T02:29:26;12.23;;;7.00;;
69401;SDS011;56589;51.992;5.924;2023-10-13T02:31:55;10.15;;;7.00;;
69401;SDS011;56589;51.992;5.924;2023-10-13T02:34:20;14.35;;;6.68;;
69401;SDS011;56589;51.992;5.924;2023-10-13T02:36:46;18.52;;;6.95;;
69401;SDS011;56589;51.992;5.924;2023-10-13T02:39:12;19.80;;;7.28;;
69401;SDS011;56589;51.992;5.924;2023-10-13T02:41:38;13.82;;;6.72;;
69401;SDS011;56589;51.992;5.924;2023-10-13T02:44:06;14.98;;;6.88;;
69401;SDS011;56589;51.992;5.924;2023-10-13T02:46:33;14.95;;;7.10;;
69401;SDS011;56589;51.992;5.924;2023-10-13T02:49:02;11.40;;;5.78;;
69401;SDS011;56589;51.992;5.924;2023-10-13T02:51:28;14.68;;;6.63;;
69401;SDS011;56589;51.992;5.924;2023-10-13T02:53:54;10.48;;;5.55;;
69401;SDS011;56589;51.992;5.924;2023-10-13T02:56:19;13.38;;;5.80;;
69401;SDS011;56589;51.992;5.924;2023-10-13T02:58:46;10.55;;;5.72;;
69401;SDS011;56589;51.992;5.924;2023-10-13T03:01:13;10.98;;;5.53;;
69401;SDS011;56589;51.992;5.924;2023-10-13T03:03:39;13.45;;;5.30;;
69401;SDS011;56589;51.992;5.924;2023-10-13T03:06:07;12.65;;;5.57;;
69401;SDS011;56589;51.992;5.924;2023-10-13T03:08:33;11.77;;;5.43;;
69401;SDS011;56589;51.992;5.924;2023-10-13T03:10:59;8.30;;;5.22;;
69401;SDS011;56589;51.992;5.924;2023-10-13T03:13:24;12.23;;;5.30;;
69401;SDS011;56589;51.992;5.924;2023-10-13T03:15:50;9.27;;;5.75;;
69401;SDS011;56589;51.992;5.924;2023-10-13T03:18:16;10.07;;;5.38;;
69401;SDS011;56589;51.992;5.924;2023-10-13T03:20:41;10.32;;;5.00;;
69401;SDS011;56589;51.992;5.924;2023-10-13T03:23:10;11.40;;;4.50;;
69401;SDS011;56589;51.992;5.924;2023-10-13T03:25:36;8.50;;;4.55;;
69401;SDS011;56589;51.992;5.924;2023-10-13T03:28:02;11.90;;;5.15;;
69401;SDS011;56589;51.992;5.924;2023-10-13T03:30:28;8.35;;;4.28;;
69401;SDS011;56589;51.992;5.924;2023-10-13T03:32:54;13.48;;;4.97;;
69401;SDS011;56589;51.992;5.924;2023-10-13T03:35:20;12.35;;;4.43;;
69401;SDS011;56589;51.992;5.924;2023-10-13T03:37:46;12.15;;;5.00;;
69401;SDS011;56589;51.992;5.924;2023-10-13T03:40:14;8.00;;;3.90;;
69401;SDS011;56589;51.992;5.924;2023-10-13T03:42:40;9.73;;;4.32;;
69401;SDS011;56589;51.992;5.924;2023-10-13T03:45:06;10.30;;;4.47;;
69401;SDS011;56589;51.992;5.924;2023-10-13T03:47:33;11.15;;;4.32;;
69401;SDS011;56589;51.992;5.924;2023-10-13T03:49:59;9.68;;;4.30;;
69401;SDS011;56589;51.992;5.924;2023-10-13T03:52:24;15.98;;;5.05;;
69401;SDS011;56589;51.992;5.924;2023-10-13T03:54:50;15.02;;;4.88;;
69401;SDS011;56589;51.992;5.924;2023-10-13T03:57:19;16.85;;;6.38;;
69401;SDS011;56589;51.992;5.924;2023-10-13T03:59:44;13.80;;;6.10;;
69401;SDS011;56589;51.992;5.924;2023-10-13T04:02:10;15.70;;;6.40;;
69401;SDS011;56589;51.992;5.924;2023-10-13T04:04:36;17.20;;;7.38;;
69401;SDS011;56589;51.992;5.924;2023-10-13T04:07:02;10.95;;;6.18;;
69401;SDS011;56589;51.992;5.924;2023-10-13T04:09:29;12.82;;;6.68;;
69401;SDS011;56589;51.992;5.924;2023-10-13T04:11:54;20.63;;;6.75;;
69401;SDS011;56589;51.992;5.924;2023-10-13T04:14:23;17.42;;;6.93;;
69401;SDS011;56589;51.992;5.924;2023-10-13T04:16:48;12.93;;;6.68;;
69401;SDS011;56589;51.992;5.924;2023-10-13T04:19:14;21.58;;;7.25;;
69401;SDS011;56589;51.992;5.924;2023-10-13T04:21:40;18.65;;;8.10;;
69401;SDS011;56589;51.992;5.924;2023-10-13T04:24:06;19.85;;;7.22;;
69401;SDS011;56589;51.992;5.924;2023-10-13T04:26:33;18.67;;;8.15;;
69401;SDS011;56589;51.992;5.924;2023-10-13T04:28:58;11.10;;;6.40;;
69401;SDS011;56589;51.992;5.924;2023-10-13T04:31:27;17.13;;;6.57;;
69401;SDS011;56589;51.992;5.924;2023-10-13T04:33:52;15.80;;;6.93;;
69401;SDS011;56589;51.992;5.924;2023-10-13T04:36:18;15.98;;;6.50;;
69401;SDS011;56589;51.992;5.924;2023-10-13T04:38:44;15.77;;;7.55;;
69401;SDS011;56589;51.992;5.924;2023-10-13T04:41:11;13.00;;;6.75;;
69401;SDS011;56589;51.992;5.924;2023-10-13T04:43:36;19.95;;;6.68;;
69401;SDS011;56589;51.992;5.924;2023-10-13T04:46:02;17.63;;;7.70;;
69401;SDS011;56589;51.992;5.924;2023-10-13T04:48:30;18.67;;;7.47;;
69401;SDS011;56589;51.992;5.924;2023-10-13T04:50:59;16.15;;;7.40;;
69401;SDS011;56589;51.992;5.924;2023-10-13T04:53:26;17.20;;;7.38;;
69401;SDS011;56589;51.992;5.924;2023-10-13T04:55:52;15.57;;;7.50;;
69401;SDS011;56589;51.992;5.924;2023-10-13T04:58:17;14.77;;;7.85;;
69401;SDS011;56589;51.992;5.924;2023-10-13T05:00:43;18.15;;;8.05;;
69401;SDS011;56589;51.992;5.924;2023-10-13T05:03:09;16.73;;;8.57;;
69401;SDS011;56589;51.992;5.924;2023-10-13T05:05:37;21.20;;;8.63;;
69401;SDS011;56589;51.992;5.924;2023-10-13T05:08:07;18.98;;;8.80;;
69401;SDS011;56589;51.992;5.924;2023-10-13T05:10:34;21.35;;;8.73;;
69401;SDS011;56589;51.992;5.924;2023-10-13T05:13:02;20.75;;;9.55;;
69401;SDS011;56589;51.992;5.924;2023-10-13T05:15:28;24.23;;;10.13;;
69401;SDS011;56589;51.992;5.924;2023-10-13T05:17:54;18.30;;;9.95;;
69401;SDS011;56589;51.992;5.924;2023-10-13T05:20:19;23.42;;;10.25;;
69401;SDS011;56589;51.992;5.924;2023-10-13T05:22:48;21.27;;;9.80;;
69401;SDS011;56589;51.992;5.924;2023-10-13T05:25:13;21.20;;;9.82;;
69401;SDS011;56589;51.992;5.924;2023-10-13T05:27:39;16.45;;;9.57;;
69401;SDS011;56589;51.992;5.924;2023-10-13T05:30:06;18.48;;;9.20;;
69401;SDS011;56589;51.992;5.924;2023-10-13T05:32:33;21.95;;;9.55;;
69401;SDS011;56589;51.992;5.924;2023-10-13T05:34:59;15.25;;;8.27;;
69401;SDS011;56589;51.992;5.924;2023-10-13T05:37:25;18.23;;;8.75;;
69401;SDS011;56589;51.992;5.924;2023-10-13T05:39:53;14.95;;;8.18;;
69401;SDS011;56589;51.992;5.924;2023-10-13T05:42:19;15.65;;;8.10;;
69401;SDS011;56589;51.992;5.924;2023-10-13T05:44:45;19.45;;;6.68;;
69401;SDS011;56589;51.992;5.924;2023-10-13T05:47:11;12.93;;;7.10;;
69401;SDS011;56589;51.992;5.924;2023-10-13T05:49:36;14.05;;;6.63;;
69401;SDS011;56589;51.992;5.924;2023-10-13T05:52:02;9.93;;;5.97;;
69401;SDS011;56589;51.992;5.924;2023-10-13T05:54:28;10.65;;;6.15;;
69401;SDS011;56589;51.992;5.924;2023-10-13T05:56:57;13.88;;;6.72;;
69401;SDS011;56589;51.992;5.924;2023-10-13T05:59:23;11.95;;;6.43;;
69401;SDS011;56589;51.992;5.924;2023-10-13T06:01:48;11.07;;;6.13;;
69401;SDS011;56589;51.992;5.924;2023-10-13T06:04:14;10.63;;;5.60;;
69401;SDS011;56589;51.992;5.924;2023-10-13T06:06:40;10.13;;;5.65;;
69401;SDS011;56589;51.992;5.924;2023-10-13T06:09:06;12.98;;;5.55;;
69401;SDS011;56589;51.992;5.924;2023-10-13T06:11:31;12.40;;;5.82;;
69401;SDS011;56589;51.992;5.924;2023-10-13T06:14:00;13.30;;;5.75;;
69401;SDS011;56589;51.992;5.924;2023-10-13T06:16:26;9.70;;;5.55;;
69401;SDS011;56589;51.992;5.924;2023-10-13T06:18:51;13.95;;;6.30;;
69401;SDS011;56589;51.992;5.924;2023-10-13T06:21:17;8.18;;;5.20;;
69401;SDS011;56589;51.992;5.924;2023-10-13T06:23:44;11.05;;;5.85;;
69401;SDS011;56589;51.992;5.924;2023-10-13T06:26:09;13.07;;;5.13;;
69401;SDS011;56589;51.992;5.924;2023-10-13T06:28:35;10.70;;;5.45;;
69401;SDS011;56589;51.992;5.924;2023-10-13T06:31:04;15.13;;;5.63;;
69401;SDS011;56589;51.992;5.924;2023-10-13T06:33:30;13.45;;;5.25;;
69401;SDS011;56589;51.992;5.924;2023-10-13T06:35:56;13.77;;;5.25;;
69401;SDS011;56589;51.992;5.924;2023-10-13T06:38:22;11.65;;;5.10;;
69401;SDS011;56589;51.992;5.924;2023-10-13T06:40:48;10.10;;;5.25;;
69401;SDS011;56589;51.992;5.924;2023-10-13T06:43:14;14.30;;;4.68;;
69401;SDS011;56589;51.992;5.924;2023-10-13T06:45:40;9.93;;;5.53;;
69401;SDS011;56589;51.992;5.924;2023-10-13T06:48:10;10.15;;;5.00;;
69401;SDS011;56589;51.992;5.924;2023-10-13T06:50:35;8.23;;;4.50;;
69401;SDS011;56589;51.992;5.924;2023-10-13T06:53:01;13.70;;;5.00;;
69401;SDS011;56589;51.992;5.924;2023-10-13T06:55:27;8.45;;;4.50;;
69401;SDS011;56589;51.992;5.924;2023-10-13T06:57:53;10.60;;;4.85;;
69401;SDS011;56589;51.992;5.924;2023-10-13T07:00:19;8.00;;;4.50;;
69401;SDS011;56589;51.992;5.924;2023-10-13T07:02:45;9.02;;;4.47;;
69401;SDS011;56589;51.992;5.924;2023-10-13T07:05:13;11.32;;;4.22;;
69401;SDS011;56589;51.992;5.924;2023-10-13T07:07:39;13.25;;;4.57;;
69401;SDS011;56589;51.992;5.924;2023-10-13T07:10:07;9.40;;;4.45;;
69401;SDS011;56589;51.992;5.924;2023-10-13T07:12:34;10.27;;;4.22;;
69401;SDS011;56589;51.992;5.924;2023-10-13T07:15:00;6.63;;;4.35;;
69401;SDS011;56589;51.992;5.924;2023-10-13T07:17:26;11.60;;;4.47;;
69401;SDS011;56589;51.992;5.924;2023-10-13T07:19:52;8.30;;;4.05;;
69401;SDS011;56589;51.992;5.924;2023-10-13T07:22:21;10.02;;;5.05;;
69401;SDS011;56589;51.992;5.924;2023-10-13T07:24:48;9.15;;;5.57;;
69401;SDS011;56589;51.992;5.924;2023-10-13T07:27:16;9.65;;;4.40;;
69401;SDS011;56589;51.992;5.924;2023-10-13T07:29:42;9.23;;;4.70;;
69401;SDS011;56589;51.992;5.924;2023-10-13T07:32:07;11.00;;;5.22;;
69401;SDS011;56589;51.992;5.924;2023-10-13T07:34:33;13.80;;;5.07;;
69401;SDS011;56589;51.992;5.924;2023-10-13T07:36:59;14.00;;;4.90;;
69401;SDS011;56589;51.992;5.924;2023-10-13T07:39:28;8.88;;;4.60;;
69401;SDS011;56589;51.992;5.924;2023-10-13T07:41:55;9.35;;;4.15;;
69401;SDS011;56589;51.992;5.924;2023-10-13T07:44:21;10.20;;;4.85;;
69401;SDS011;56589;51.992;5.924;2023-10-13T07:46:47;16.75;;;5.40;;
69401;SDS011;56589;51.992;5.924;2023-10-13T07:49:13;18.20;;;5.35;;
69401;SDS011;56589;51.992;5.924;2023-10-13T07:51:38;13.45;;;4.88;;
69401;SDS011;56589;51.992;5.924;2023-10-13T07:54:04;12.00;;;5.32;;
69401;SDS011;56589;51.992;5.924;2023-10-13T07:56:33;13.05;;;5.40;;
69401;SDS011;56589;51.992;5.924;2023-10-13T07:58:59;14.40;;;5.00;;
69401;SDS011;56589;51.992;5.924;2023-10-13T08:01:24;13.88;;;5.32;;
69401;SDS011;56589;51.992;5.924;2023-10-13T08:03:50;9.98;;;4.43;;
69401;SDS011;56589;51.992;5.924;2023-10-13T08:06:17;11.07;;;4.55;;
69401;SDS011;56589;51.992;5.924;2023-10-13T08:08:43;10.60;;;4.80;;
69401;SDS011;56589;51.992;5.924;2023-10-13T08:11:11;7.88;;;4.72;;
69401;SDS011;56589;51.992;5.924;2023-10-13T08:13:41;10.73;;;4.53;;
69401;SDS011;56589;51.992;5.924;2023-10-13T08:16:07;9.57;;;4.00;;
69401;SDS011;56589;51.992;5.924;2023-10-13T08:18:33;10.70;;;4.70;;
69401;SDS011;56589;51.992;5.924;2023-10-13T08:21:00;16.88;;;4.95;;
69401;SDS011;56589;51.992;5.924;2023-10-13T08:23:27;15.50;;;5.07;;
69401;SDS011;56589;51.992;5.924;2023-10-13T08:25:53;12.35;;;4.25;;
69401;SDS011;56589;51.992;5.924;2023-10-13T08:28:19;14.55;;;4.97;;
69401;SDS011;56589;51.992;5.924;2023-10-13T08:30:47;12.57;;;4.80;;
69401;SDS011;56589;51.992;5.924;2023-10-13T08:33:13;16.65;;;4.93;;
69401;SDS011;56589;51.992;5.924;2023-10-13T08:35:39;19.50;;;6.00;;
69401;SDS011;56589;51.992;5.924;2023-10-13T08:38:05;15.57;;;4.45;;
69401;SDS011;56589;51.992;5.924;2023-10-13T08:40:30;15.27;;;4.80;;
69401;SDS011;56589;51.992;5.924;2023-10-13T08:42:56;13.55;;;4.90;;
69401;SDS011;56589;51.992;5.924;2023-10-13T08:45:29;12.48;;;4.75;;
69401;SDS011;56589;51.992;5.924;2023-10-13T08:47:59;15.98;;;4.75;;
69401;SDS011;56589;51.992;5.924;2023-10-13T08:50:25;12.38;;;4.47;;
69401;SDS011;56589;51.992;5.924;2023-10-13T08:52:51;12.85;;;4.93;;
69401;SDS011;56589;51.992;5.924;2023-10-13T08:55:19;15.80;;;4.57;;
69401;SDS011;56589;51.992;5.924;2023-10-13T08:57:45;12.90;;;4.65;;
69401;SDS011;56589;51.992;5.924;2023-10-13T09:00:12;16.75;;;4.22;;
69401;SDS011;56589;51.992;5.924;2023-10-13T09:02:39;13.20;;;5.00;;
69401;SDS011;56589;51.992;5.924;2023-10-13T09:05:07;14.43;;;4.85;;
69401;SDS011;56589;51.992;5.924;2023-10-13T09:07:43;17.05;;;4.55;;
69401;SDS011;56589;51.992;5.924;2023-10-13T09:10:10;13.48;;;5.05;;
69401;SDS011;56589;51.992;5.924;2023-10-13T09:12:35;16.48;;;4.85;;
69401;SDS011;56589;51.992;5.924;2023-10-13T09:15:02;15.52;;;4.70;;
69401;SDS011;56589;51.992;5.924;2023-10-13T09:17:32;13.85;;;4.80;;
69401;SDS011;56589;51.992;5.924;2023-10-13T09:20:09;20.73;;;4.32;;
69401;SDS011;56589;51.992;5.924;2023-10-13T09:22:36;17.33;;;4.60;;
69401;SDS011;56589;51.992;5.924;2023-10-13T09:25:02;13.35;;;4.55;;
69401;SDS011;56589;51.992;5.924;2023-10-13T09:27:30;15.90;;;4.53;;
69401;SDS011;56589;51.992;5.924;2023-10-13T09:29:57;14.80;;;5.25;;
69401;SDS011;56589;51.992;5.924;2023-10-13T09:32:24;15.50;;;5.28;;
69401;SDS011;56589;51.992;5.924;2023-10-13T09:34:50;17.55;;;4.38;;
69401;SDS011;56589;51.992;5.924;2023-10-13T09:37:19;10.68;;;4.22;;
69401;SDS011;56589;51.992;5.924;2023-10-13T09:39:45;17.63;;;5.38;;
69401;SDS011;56589;51.992;5.924;2023-10-13T09:42:12;13.77;;;5.00;;
69401;SDS011;56589;51.992;5.924;2023-10-13T09:44:38;14.55;;;4.95;;
69401;SDS011;56589;51.992;5.924;2023-10-13T09:47:04;14.27;;;4.15;;
69401;SDS011;56589;51.992;5.924;2023-10-13T09:49:39;14.45;;;4.28;;
69401;SDS011;56589;51.992;5.924;2023-10-13T09:52:08;12.07;;;4.38;;
69401;SDS011;56589;51.992;5.924;2023-10-13T09:54:38;19.10;;;4.95;;
69401;SDS011;56589;51.992;5.924;2023-10-13T09:57:08;11.52;;;4.18;;
69401;SDS011;56589;51.992;5.924;2023-10-13T09:59:45;14.50;;;5.22;;
69401;SDS011;56589;51.992;5.924;2023-10-13T10:02:15;11.40;;;4.88;;
69401;SDS011;56589;51.992;5.924;2023-10-13T10:04:41;12.02;;;5.00;;
69401;SDS011;56589;51.992;5.924;2023-10-13T10:07:23;19.60;;;6.43;;
69401;SDS011;56589;51.992;5.924;2023-10-13T10:09:57;23.70;;;4.60;;
69401;SDS011;56589;51.992;5.924;2023-10-13T10:12:29;10.55;;;4.68;;
69401;SDS011;56589;51.992;5.924;2023-10-13T10:15:09;12.52;;;5.15;;
69401;SDS011;56589;51.992;5.924;2023-10-13T10:17:50;23.85;;;5.28;;
69401;SDS011;56589;51.992;5.924;2023-10-13T10:20:16;9.70;;;4.43;;
69401;SDS011;56589;51.992;5.924;2023-10-13T10:22:57;16.60;;;5.50;;
69401;SDS011;56589;51.992;5.924;2023-10-13T10:25:31;22.35;;;5.88;;
69401;SDS011;56589;51.992;5.924;2023-10-13T10:27:59;14.48;;;4.82;;
69401;SDS011;56589;51.992;5.924;2023-10-13T10:30:26;12.77;;;4.55;;
69401;SDS011;56589;51.992;5.924;2023-10-13T10:32:54;15.32;;;5.03;;
69401;SDS011;56589;51.992;5.924;2023-10-13T10:35:22;13.40;;;4.60;;
69401;SDS011;56589;51.992;5.924;2023-10-13T10:37:49;15.40;;;5.22;;
69401;SDS011;56589;51.992;5.924;2023-10-13T10:40:16;14.55;;;4.68;;
69401;SDS011;56589;51.992;5.924;2023-10-13T10:42:47;12.40;;;4.80;;
69401;SDS011;56589;51.992;5.924;2023-10-13T10:45:16;15.25;;;4.82;;
69401;SDS011;56589;51.992;5.924;2023-10-13T10:47:47;13.82;;;4.88;;
69401;SDS011;56589;51.992;5.924;2023-10-13T10:50:13;18.08;;;4.20;;
69401;SDS011;56589;51.992;5.924;2023-10-13T10:52:49;10.63;;;4.47;;
69401;SDS011;56589;51.992;5.924;2023-10-13T10:55:19;15.77;;;5.80;;
69401;SDS011;56589;51.992;5.924;2023-10-13T10:57:47;17.00;;;5.15;;
69401;SDS011;56589;51.992;5.924;2023-10-13T11:00:24;15.20;;;5.75;;
69401;SDS011;56589;51.992;5.924;2023-10-13T11:02:53;11.70;;;4.47;;
69401;SDS011;56589;51.992;5.924;2023-10-13T11:05:19;14.32;;;4.70;;
69401;SDS011;56589;51.992;5.924;2023-10-13T11:07:45;15.35;;;4.70;;
69401;SDS011;56589;51.992;5.924;2023-10-13T11:10:12;13.35;;;4.10;;
69401;SDS011;56589;51.992;5.924;2023-10-13T11:12:39;13.95;;;4.53;;
69401;SDS011;56589;51.992;5.924;2023-10-13T11:15:07;14.95;;;4.30;;
69401;SDS011;56589;51.992;5.924;2023-10-13T11:17:34;17.90;;;5.13;;
69401;SDS011;56589;51.992;5.924;2023-10-13T11:20:07;17.98;;;4.93;;
69401;SDS011;56589;51.992;5.924;2023-10-13T11:22:36;14.75;;;4.82;;
69401;SDS011;56589;51.992;5.924;2023-10-13T11:25:02;10.73;;;4.60;;
69401;SDS011;56589;51.992;5.924;2023-10-13T11:27:31;18.00;;;5.57;;
69401;SDS011;56589;51.992;5.924;2023-10-13T11:29:57;14.63;;;5.30;;
69401;SDS011;56589;51.992;5.924;2023-10-13T11:32:25;20.52;;;4.72;;
69401;SDS011;56589;51.992;5.924;2023-10-13T11:34:51;12.02;;;4.57;;
69401;SDS011;56589;51.992;5.924;2023-10-13T11:37:17;15.90;;;4.75;;
69401;SDS011;56589;51.992;5.924;2023-10-13T11:39:43;11.48;;;4.55;;
69401;SDS011;56589;51.992;5.924;2023-10-13T11:42:08;13.70;;;4.68;;
69401;SDS011;56589;51.992;5.924;2023-10-13T11:44:34;15.50;;;4.90;;
69401;SDS011;56589;51.992;5.924;2023-10-13T11:47:00;20.95;;;4.93;;
69401;SDS011;56589;51.992;5.924;2023-10-13T11:49:28;12.65;;;4.57;;
69401;SDS011;56589;51.992;5.924;2023-10-13T11:51:54;14.57;;;4.85;;
69401;SDS011;56589;51.992;5.924;2023-10-13T11:54:20;19.88;;;5.45;;
69401;SDS011;56589;51.992;5.924;2023-10-13T11:56:48;18.85;;;4.63;;
69401;SDS011;56589;51.992;5.924;2023-10-13T11:59:15;15.23;;;4.85;;
69401;SDS011;56589;51.992;5.924;2023-10-13T12:04:09;14.65;;;5.00;;
69401;SDS011;56589;51.992;5.924;2023-10-13T12:06:37;16.10;;;5.13;;
69401;SDS011;56589;51.992;5.924;2023-10-13T12:09:03;15.98;;;4.78;;
69401;SDS011;56589;51.992;5.924;2023-10-13T12:11:31;20.17;;;5.45;;
69401;SDS011;56589;51.992;5.924;2023-10-13T12:13:57;14.63;;;4.55;;
69401;SDS011;56589;51.992;5.924;2023-10-13T12:16:23;14.55;;;4.97;;
69401;SDS011;56589;51.992;5.924;2023-10-13T12:18:49;21.23;;;5.20;;
69401;SDS011;56589;51.992;5.924;2023-10-13T12:21:14;17.60;;;4.78;;
69401;SDS011;56589;51.992;5.924;2023-10-13T12:23:43;17.33;;;5.68;;
69401;SDS011;56589;51.992;5.924;2023-10-13T12:26:09;14.88;;;5.07;;
69401;SDS011;56589;51.992;5.924;2023-10-13T12:28:34;13.15;;;4.82;;
69401;SDS011;56589;51.992;5.924;2023-10-13T12:31:03;15.10;;;5.75;;
69401;SDS011;56589;51.992;5.924;2023-10-13T12:33:29;13.60;;;4.93;;
69401;SDS011;56589;51.992;5.924;2023-10-13T12:35:55;13.95;;;5.55;;
69401;SDS011;56589;51.992;5.924;2023-10-13T12:38:22;14.90;;;5.60;;
69401;SDS011;56589;51.992;5.924;2023-10-13T12:40:51;18.55;;;5.45;;
69401;SDS011;56589;51.992;5.924;2023-10-13T12:43:19;20.80;;;5.38;;
69401;SDS011;56589;51.992;5.924;2023-10-13T12:45:45;16.60;;;6.05;;
69401;SDS011;56589;51.992;5.924;2023-10-13T12:48:12;12.05;;;4.90;;
69401;SDS011;56589;51.992;5.924;2023-10-13T12:50:38;13.45;;;5.03;;
69401;SDS011;56589;51.992;5.924;2023-10-13T12:53:03;17.65;;;5.85;;
69401;SDS011;56589;51.992;5.924;2023-10-13T12:55:29;11.13;;;5.10;;
69401;SDS011;56589;51.992;5.924;2023-10-13T12:57:57;17.48;;;5.10;;
69401;SDS011;56589;51.992;5.924;2023-10-13T13:00:23;17.40;;;6.85;;
69401;SDS011;56589;51.992;5.924;2023-10-13T13:02:49;17.83;;;5.78;;
69401;SDS011;56589;51.992;5.924;2023-10-13T13:05:15;16.20;;;4.65;;
69401;SDS011;56589;51.992;5.924;2023-10-13T13:07:41;19.38;;;5.57;;
69401;SDS011;56589;51.992;5.924;2023-10-13T13:10:07;12.77;;;4.93;;
69401;SDS011;56589;51.992;5.924;2023-10-13T13:12:33;18.98;;;5.10;;
69401;SDS011;56589;51.992;5.924;2023-10-13T13:15:01;17.27;;;5.80;;
69401;SDS011;56589;51.992;5.924;2023-10-13T13:17:27;16.27;;;5.25;;
69401;SDS011;56589;51.992;5.924;2023-10-13T13:19:53;13.73;;;4.50;;
69401;SDS011;56589;51.992;5.924;2023-10-13T13:22:19;16.00;;;5.72;;
69401;SDS011;56589;51.992;5.924;2023-10-13T13:24:45;15.80;;;5.30;;
69401;SDS011;56589;51.992;5.924;2023-10-13T13:27:11;19.77;;;5.05;;
69401;SDS011;56589;51.992;5.924;2023-10-13T13:29:38;13.50;;;4.88;;
69401;SDS011;56589;51.992;5.924;2023-10-13T13:32:06;9.60;;;4.88;;
69401;SDS011;56589;51.992;5.924;2023-10-13T13:34:32;17.70;;;4.78;;
69401;SDS011;56589;51.992;5.924;2023-10-13T13:36:58;11.55;;;4.40;;
69401;SDS011;56589;51.992;5.924;2023-10-13T13:39:23;19.40;;;5.60;;
69401;SDS011;56589;51.992;5.924;2023-10-13T13:41:49;17.90;;;5.43;;
69401;SDS011;56589;51.992;5.924;2023-10-13T13:44:15;17.20;;;4.75;;
69401;SDS011;56589;51.992;5.924;2023-10-13T13:46:41;22.10;;;6.32;;
69401;SDS011;56589;51.992;5.924;2023-10-13T13:49:09;17.80;;;5.25;;
69401;SDS011;56589;51.992;5.924;2023-10-13T13:51:35;12.88;;;4.80;;
69401;SDS011;56589;51.992;5.924;2023-10-13T13:54:01;16.88;;;4.70;;
69401;SDS011;56589;51.992;5.924;2023-10-13T13:56:26;14.45;;;4.55;;
69401;SDS011;56589;51.992;5.924;2023-10-13T13:58:52;13.70;;;4.80;;
69401;SDS011;56589;51.992;5.924;2023-10-13T14:01:19;16.08;;;4.47;;
69401;SDS011;56589;51.992;5.924;2023-10-13T14:03:46;19.67;;;5.40;;
69401;SDS011;56589;51.992;5.924;2023-10-13T14:06:16;11.77;;;4.68;;
69401;SDS011;56589;51.992;5.924;2023-10-13T14:08:44;16.05;;;4.28;;
69401;SDS011;56589;51.992;5.924;2023-10-13T14:11:10;15.55;;;4.60;;
69401;SDS011;56589;51.992;5.924;2023-10-13T14:13:36;13.55;;;4.72;;
69401;SDS011;56589;51.992;5.924;2023-10-13T14:16:01;16.05;;;4.47;;
69401;SDS011;56589;51.992;5.924;2023-10-13T14:18:28;14.32;;;3.92;;
69401;SDS011;56589;51.992;5.924;2023-10-13T14:20:55;23.27;;;4.60;;
69401;SDS011;56589;51.992;5.924;2023-10-13T14:23:23;13.00;;;4.40;;
69401;SDS011;56589;51.992;5.924;2023-10-13T14:25:49;23.85;;;4.90;;
69401;SDS011;56589;51.992;5.924;2023-10-13T14:28:15;17.23;;;4.15;;
69401;SDS011;56589;51.992;5.924;2023-10-13T14:30:40;12.07;;;3.72;;
69401;SDS011;56589;51.992;5.924;2023-10-13T14:33:06;21.30;;;4.70;;